createdAt,value
2018-06-19T06:30:51.506Z,6.67
2018-06-19T06:33:19.676Z,6.17
2018-06-19T06:35:47.814Z,8.37
2018-06-19T06:38:15.958Z,9.50
2018-06-19T06:40:43.864Z,7.43
2018-06-19T06:43:11.992Z,5.87
2018-06-19T06:45:40.153Z,7.80
2018-06-19T06:48:08.304Z,6.50
2018-06-19T06:50:36.485Z,7.73
2018-06-19T06:53:04.660Z,7.07
2018-06-19T06:55:32.811Z,9.43
2018-06-19T06:58:00.957Z,14.90
2018-06-19T07:00:28.876Z,4.50
2018-06-19T07:02:57.010Z,7.13
2018-06-19T07:05:25.165Z,9.00
2018-06-19T07:07:53.312Z,18.07
2018-06-19T07:10:21.465Z,7.43
2018-06-19T07:12:49.622Z,5.43
2018-06-19T07:15:17.769Z,6.50
2018-06-19T07:17:45.903Z,8.47
2018-06-19T07:20:14.042Z,4.43
2018-06-19T07:22:42.191Z,3.63
2018-06-19T07:25:10.428Z,6.60
2018-06-19T07:27:38.585Z,5.80
2018-06-19T07:30:06.732Z,6.93
2018-06-19T07:32:34.896Z,8.07
2018-06-19T07:35:03.041Z,4.73
2018-06-19T07:37:31.196Z,3.67
2018-06-19T07:39:59.341Z,4.73
2018-06-19T07:42:27.485Z,4.73
2018-06-19T07:44:55.412Z,6.90
2018-06-19T07:47:23.563Z,4.37
2018-06-19T07:49:51.717Z,5.97
2018-06-19T07:52:19.881Z,4.90
2018-06-19T07:54:48.028Z,7.33
2018-06-19T07:57:16.243Z,4.17
2018-06-19T07:59:44.329Z,5.17
2018-06-19T08:02:12.481Z,5.27
2018-06-19T08:04:40.623Z,3.23
2018-06-19T08:07:08.780Z,5.60
2018-06-19T08:09:37.100Z,4.40
2018-06-19T08:12:06.628Z,5.03
2018-06-19T08:14:34.876Z,5.47
2018-06-19T08:17:03.795Z,3.40
2018-06-19T08:19:31.947Z,3.63
2018-06-19T08:22:00.228Z,3.30
2018-06-19T08:24:28.368Z,5.13
2018-06-19T08:26:56.525Z,2.57
2018-06-19T08:29:24.665Z,2.47
2018-06-19T08:31:52.816Z,3.00
2018-06-19T08:34:20.790Z,3.40
2018-06-19T08:36:49.733Z,2.80
2018-06-19T08:39:17.958Z,4.93
2018-06-19T08:41:46.075Z,3.33
2018-06-19T08:44:14.178Z,4.47
2018-06-19T08:46:42.704Z,5.17
2018-06-19T08:49:12.193Z,4.03
2018-06-19T08:51:40.121Z,3.57
2018-06-19T08:54:08.333Z,3.73
2018-06-19T08:56:36.864Z,2.80
2018-06-19T08:59:05.013Z,4.20
2018-06-19T09:01:33.896Z,3.30
2018-06-19T09:04:02.085Z,3.97
2018-06-19T09:06:30.257Z,3.43
2018-06-19T09:08:58.403Z,4.53
2018-06-19T09:11:26.460Z,6.70
2018-06-19T09:13:54.600Z,4.40
2018-06-19T09:16:22.752Z,5.83
2018-06-19T09:18:50.905Z,4.13
2018-06-19T09:21:19.040Z,3.50
2018-06-19T09:23:49.620Z,5.30
2018-06-19T09:26:17.766Z,4.20
2018-06-19T09:28:45.924Z,3.57
2018-06-19T09:31:14.259Z,2.70
2018-06-19T09:33:42.432Z,5.70
2018-06-19T09:36:10.584Z,3.10
2018-06-19T09:38:38.694Z,2.70
2018-06-19T09:41:06.840Z,3.57
2018-06-19T09:43:35.004Z,6.17
2018-06-19T09:46:02.937Z,7.83
2018-06-19T09:48:31.107Z,8.23
2018-06-19T09:50:59.365Z,3.83
2018-06-19T09:53:27.570Z,3.87
2018-06-19T09:55:55.836Z,5.10
2018-06-19T09:58:24.169Z,4.43
2018-06-19T10:00:52.146Z,5.13
2018-06-19T10:03:20.300Z,3.80
2018-06-19T10:05:48.332Z,5.20
2018-06-19T10:08:16.384Z,3.73
2018-06-19T10:10:44.577Z,4.50
2018-06-19T10:13:12.799Z,5.57
2018-06-19T10:15:40.729Z,2.83
2018-06-19T10:18:08.876Z,15.00
2018-06-19T10:20:37.034Z,10.47
2018-06-19T10:23:05.232Z,18.53
2018-06-19T10:25:33.397Z,24.90
2018-06-19T10:28:01.556Z,7.43
2018-06-19T10:30:29.697Z,3.57
2018-06-19T10:32:57.857Z,15.57
2018-06-19T10:35:26.005Z,21.43
2018-06-19T10:37:54.184Z,20.90
2018-06-19T10:40:22.320Z,7.07
2018-06-19T10:42:50.373Z,5.07
2018-06-19T10:45:18.624Z,2.80
2018-06-19T10:47:46.768Z,3.50
2018-06-19T10:50:14.966Z,3.10
2018-06-19T10:52:43.137Z,5.00
2018-06-19T10:55:11.338Z,7.50
2018-06-19T10:57:39.487Z,3.43
2018-06-19T11:00:07.724Z,4.40
2018-06-19T11:02:35.635Z,2.57
2018-06-19T11:05:03.862Z,4.43
2018-06-19T11:07:31.963Z,3.23
2018-06-19T11:10:01.624Z,6.13
2018-06-19T11:12:29.929Z,4.47
2018-06-19T11:14:58.088Z,3.47
2018-06-19T11:17:26.304Z,4.13
2018-06-19T11:19:54.478Z,3.47
2018-06-19T11:22:22.632Z,4.00
2018-06-19T11:24:50.795Z,3.03
2018-06-19T11:27:19.016Z,4.23
2018-06-19T11:29:47.186Z,5.23
2018-06-19T11:32:15.320Z,3.17
2018-06-19T11:34:43.407Z,2.90
2018-06-19T11:37:11.576Z,4.93
2018-06-19T11:39:39.500Z,5.47
2018-06-19T11:42:07.688Z,4.10
2018-06-19T11:44:35.973Z,4.83
2018-06-19T11:47:04.125Z,3.83
2018-06-19T11:49:32.284Z,4.83
2018-06-19T11:52:00.514Z,3.83
2018-06-19T11:54:29.349Z,3.43
2018-06-19T11:56:57.654Z,3.03
2018-06-19T11:59:25.756Z,3.10
2018-06-19T12:01:53.670Z,3.27
2018-06-19T12:04:21.840Z,5.13
2018-06-19T12:06:50.116Z,6.03
2018-06-19T12:09:18.166Z,4.53
2018-06-19T12:11:46.351Z,3.83
2018-06-19T12:14:14.495Z,3.00
2018-06-19T12:16:42.499Z,4.03
2018-06-19T12:19:10.671Z,2.90
2018-06-19T12:21:38.818Z,2.60
2018-06-19T12:24:06.778Z,4.10
2018-06-19T12:26:34.992Z,3.77
2018-06-19T12:29:03.129Z,3.63
2018-06-19T12:31:31.291Z,3.73
2018-06-19T12:33:59.448Z,3.80
2018-06-19T12:36:27.625Z,3.63
2018-06-19T12:38:55.757Z,3.90
2018-06-19T12:41:44.777Z,5.57
2018-06-19T12:44:13.754Z,3.60
2018-06-19T12:46:42.370Z,4.47
2018-06-19T12:49:10.675Z,3.57
2018-06-19T12:51:51.626Z,5.67
2018-06-19T12:54:25.961Z,6.93
2018-06-19T12:56:54.109Z,4.70
2018-06-19T12:59:22.249Z,6.07
2018-06-19T13:01:50.401Z,3.27
2018-06-19T13:04:29.885Z,5.23
2018-06-19T13:06:58.042Z,4.03
2018-06-19T13:09:26.192Z,3.27
2018-06-19T13:11:54.348Z,4.67
2018-06-19T13:14:35.364Z,2.70
2018-06-19T13:17:15.021Z,4.00
2018-06-19T13:19:54.789Z,6.13
2018-06-19T13:22:22.952Z,5.93
2018-06-19T13:24:51.152Z,7.60
2018-06-19T13:27:19.297Z,4.40
2018-06-19T13:30:01.029Z,9.20
2018-06-19T13:32:30.110Z,4.10
2018-06-19T13:34:58.302Z,3.43
2018-06-19T13:37:26.437Z,2.83
2018-06-19T13:41:10.217Z,3.43
2018-06-19T13:43:49.836Z,5.13
2018-06-19T13:46:17.764Z,3.17
2018-06-19T13:48:45.904Z,4.77
2018-06-19T13:51:14.893Z,3.87
2018-06-19T13:53:43.699Z,4.57
2018-06-19T13:57:40.035Z,3.47
2018-06-19T14:00:09.548Z,4.83
2018-06-19T14:02:37.704Z,3.77
2018-06-19T14:05:06.212Z,2.50
2018-06-19T14:07:39.921Z,2.73
2018-06-19T14:10:19.968Z,4.87
2018-06-19T14:12:50.660Z,7.07
2018-06-19T14:15:19.946Z,4.70
2018-06-19T14:17:48.100Z,2.77
2018-06-19T14:20:16.566Z,4.73
2018-06-19T14:22:44.720Z,3.50
2018-06-19T14:25:12.874Z,3.53
2018-06-19T14:27:40.793Z,3.00
2018-06-19T14:30:08.940Z,3.13
2018-06-19T14:32:37.202Z,3.83
2018-06-19T14:35:05.406Z,2.50
2018-06-19T14:37:33.548Z,2.77
2018-06-19T14:40:02.065Z,4.60
2018-06-19T14:42:30.441Z,2.93
2018-06-19T14:44:58.605Z,2.70
2018-06-19T14:47:26.861Z,4.17
2018-06-19T14:49:54.775Z,2.70
2018-06-19T14:52:22.976Z,2.93
2018-06-19T14:54:51.117Z,5.23
2018-06-19T14:57:19.282Z,6.97
2018-06-19T14:59:47.452Z,6.30
2018-06-19T15:02:15.849Z,3.73
2018-06-19T15:04:44.018Z,3.37
2018-06-19T15:07:12.204Z,5.00
2018-06-19T15:09:40.371Z,3.33
2018-06-19T15:12:08.548Z,3.97
2018-06-19T15:14:36.733Z,2.70
2018-06-19T15:17:04.911Z,3.33
2018-06-19T15:19:33.256Z,6.70
2018-06-19T15:22:01.410Z,3.33
2018-06-19T15:24:29.372Z,3.80
2018-06-19T15:26:57.364Z,4.30
2018-06-19T15:29:25.533Z,3.40
2018-06-19T15:31:53.782Z,2.97
2018-06-19T15:34:21.957Z,2.97
2018-06-19T15:36:50.105Z,2.37
2018-06-19T15:39:18.283Z,4.07
2018-06-19T15:41:46.473Z,4.50
2018-06-19T15:44:14.685Z,5.97
2018-06-19T15:46:42.805Z,3.17
2018-06-19T15:49:10.979Z,3.83
2018-06-19T15:51:39.133Z,4.17
2018-06-19T15:54:07.325Z,3.07
2018-06-19T15:56:35.487Z,5.13
2018-06-19T15:59:03.652Z,6.27
2018-06-19T16:01:31.835Z,4.03
2018-06-19T16:04:00.026Z,3.13
2018-06-19T16:06:28.210Z,4.37
2018-06-19T16:08:56.356Z,3.20
2018-06-19T16:11:24.517Z,3.47
2018-06-19T16:13:52.689Z,3.20
2018-06-19T16:16:20.849Z,2.57
2018-06-19T16:18:49.400Z,4.03
2018-06-19T16:21:17.569Z,2.57
2018-06-19T16:23:45.713Z,5.83
2018-06-19T16:26:13.868Z,4.23
2018-06-19T16:28:42.089Z,3.07
2018-06-19T16:31:10.244Z,3.43
2018-06-19T16:33:38.401Z,4.10
2018-06-19T16:36:06.586Z,4.33
2018-06-19T16:38:34.754Z,5.50
2018-06-19T16:41:02.676Z,5.77
2018-06-19T16:43:30.824Z,3.03
2018-06-19T16:45:59.017Z,4.43
2018-06-19T16:48:27.176Z,6.47
2018-06-19T16:50:55.332Z,5.90
2018-06-19T16:53:23.669Z,3.73
2018-06-19T16:55:51.630Z,4.03
2018-06-19T16:58:19.782Z,4.50
2018-06-19T17:00:47.950Z,3.27
2018-06-19T17:03:16.121Z,4.23
2018-06-19T17:05:44.311Z,5.90
2018-06-19T17:08:12.452Z,3.97
2018-06-19T17:10:40.600Z,6.07
2018-06-19T17:13:08.771Z,5.40
2018-06-19T17:15:36.764Z,4.47
2018-06-19T17:18:04.969Z,5.63
2018-06-19T17:20:33.124Z,4.87
2018-06-19T17:23:01.272Z,6.40
2018-06-19T17:25:29.355Z,2.40
2018-06-19T17:27:57.504Z,3.90
2018-06-19T17:30:25.420Z,5.33
2018-06-19T17:32:53.575Z,3.47
2018-06-19T17:35:21.790Z,3.87
2018-06-19T17:37:49.934Z,3.67
2018-06-19T17:40:18.088Z,3.40
2018-06-19T17:42:46.055Z,3.33
2018-06-19T17:45:14.206Z,3.07
2018-06-19T17:47:42.371Z,3.77
2018-06-19T17:50:10.532Z,4.80
2018-06-19T17:52:38.709Z,4.13
2018-06-19T17:55:06.893Z,2.60
2018-06-19T17:57:35.064Z,4.10
2018-06-19T18:00:03.241Z,7.00
2018-06-19T18:02:31.384Z,4.67
2018-06-19T18:04:59.592Z,5.90
2018-06-19T18:07:27.749Z,3.27
2018-06-19T18:09:55.910Z,3.10
2018-06-19T18:12:24.057Z,3.03
2018-06-19T18:14:52.228Z,2.97
2018-06-19T18:17:20.387Z,3.77
2018-06-19T18:19:48.324Z,3.43
2018-06-19T18:22:17.113Z,4.17
2018-06-19T18:24:45.263Z,3.50
2018-06-19T18:27:13.420Z,3.70
2018-06-19T18:29:41.569Z,3.67
2018-06-19T18:32:09.508Z,4.27
2018-06-19T18:34:37.772Z,2.67
2018-06-19T18:37:05.921Z,3.07
2018-06-19T18:39:34.850Z,5.60
2018-06-19T18:42:02.996Z,3.27
2018-06-19T18:44:31.234Z,2.83
2018-06-19T18:46:59.170Z,3.20
2018-06-19T18:49:27.515Z,3.10
2018-06-19T18:51:55.682Z,3.37
2018-06-19T18:54:23.836Z,3.10
2018-06-19T18:56:51.781Z,6.90
2018-06-19T18:59:19.952Z,4.67
2018-06-19T19:01:48.126Z,4.00
2018-06-19T19:04:16.285Z,4.90
2018-06-19T19:06:44.534Z,5.10
2018-06-19T19:09:12.681Z,8.33
2018-06-19T19:11:40.616Z,5.93
2018-06-19T19:14:08.793Z,5.37
2018-06-19T19:16:42.363Z,8.10
2018-06-19T19:19:12.884Z,6.80
2018-06-19T19:21:41.049Z,8.10
2018-06-19T19:24:09.201Z,7.30
2018-06-19T19:26:43.853Z,8.73
2018-06-19T19:29:17.590Z,10.90
2018-06-19T19:31:45.767Z,7.97
2018-06-19T19:34:13.911Z,8.17
2018-06-19T19:36:48.073Z,8.17
2018-06-19T19:39:21.842Z,7.33
2018-06-19T19:41:49.992Z,6.97
2018-06-19T19:44:18.183Z,8.60
2018-06-19T19:46:53.097Z,7.97
2018-06-19T19:49:21.246Z,8.10
2018-06-19T19:51:49.404Z,6.00
2018-06-19T19:54:17.574Z,7.97
2018-06-19T19:56:51.245Z,5.77
2018-06-19T19:59:19.373Z,5.60
2018-06-19T20:01:47.517Z,6.20
2018-06-19T20:04:15.668Z,6.97
2018-06-19T20:06:43.813Z,5.23
2018-06-19T20:09:11.728Z,6.20
2018-06-19T20:11:39.882Z,8.67
2018-06-19T20:14:08.024Z,11.17
2018-06-19T20:16:35.960Z,4.73
2018-06-19T20:19:04.108Z,6.90
2018-06-19T20:21:32.264Z,7.07
2018-06-19T20:24:00.412Z,8.40
2018-06-19T20:26:28.336Z,6.77
2018-06-19T20:28:56.478Z,6.10
2018-06-19T20:31:24.629Z,5.03
2018-06-19T20:33:52.776Z,4.93
2018-06-19T20:36:20.916Z,4.77
2018-06-19T20:38:49.085Z,10.03
2018-06-19T20:41:17.269Z,11.20
2018-06-19T20:43:45.513Z,7.87
2018-06-19T20:46:13.440Z,5.33
2018-06-19T20:48:41.593Z,5.93
2018-06-19T20:51:09.765Z,11.07
2018-06-19T20:53:37.914Z,19.00
2018-06-19T20:56:06.092Z,20.40
2018-06-19T20:58:34.244Z,27.83
2018-06-19T21:01:02.172Z,21.50
2018-06-19T21:03:30.326Z,6.23
2018-06-19T21:05:58.609Z,9.00
2018-06-19T21:08:32.192Z,7.20
2018-06-19T21:11:00.341Z,9.57
2018-06-19T21:13:28.496Z,7.63
2018-06-19T21:15:56.652Z,8.17
2018-06-19T21:18:24.804Z,7.97
2018-06-19T21:20:52.984Z,10.60
2018-06-19T21:23:21.136Z,10.73
2018-06-19T21:25:49.292Z,8.63
2018-06-19T21:28:17.489Z,7.67
2018-06-19T21:30:45.653Z,8.27
2018-06-19T21:33:13.564Z,8.00
2018-06-19T21:35:42.256Z,10.00
2018-06-19T21:38:10.405Z,6.43
2018-06-19T21:40:38.552Z,6.43
2018-06-19T21:43:06.476Z,6.63
2018-06-19T21:45:34.633Z,7.03
2018-06-19T21:48:02.877Z,9.20
2018-06-19T21:50:31.823Z,7.00
2018-06-19T21:53:00.141Z,12.00
2018-06-19T21:55:28.234Z,10.57
2018-06-19T21:57:56.413Z,7.97
2018-06-19T22:00:24.548Z,7.67
2018-06-19T22:02:52.745Z,7.30
2018-06-19T22:05:20.897Z,6.70
2018-06-19T22:07:49.045Z,9.40
2018-06-19T22:10:17.193Z,6.90
2018-06-19T22:12:45.342Z,6.73
2018-06-19T22:15:13.283Z,6.67
2018-06-19T22:17:41.424Z,8.37
2018-06-19T22:20:09.608Z,10.03
2018-06-19T22:22:37.768Z,10.27
2018-06-19T22:25:05.927Z,11.97
2018-06-19T22:27:34.096Z,8.07
2018-06-19T22:30:02.249Z,9.20
2018-06-19T22:32:31.103Z,12.67
2018-06-19T22:34:59.335Z,5.83
2018-06-19T22:37:27.536Z,5.70
2018-06-19T22:39:55.633Z,7.77
2018-06-19T22:42:23.772Z,7.20
2018-06-19T22:44:51.936Z,13.20
2018-06-19T22:47:20.085Z,10.03
2018-06-19T22:49:48.269Z,11.33
2018-06-19T22:52:16.182Z,9.50
2018-06-19T22:54:44.338Z,7.97
2018-06-19T22:57:12.484Z,6.87
2018-06-19T22:59:40.463Z,10.60
2018-06-19T23:02:08.598Z,9.43
2018-06-19T23:04:36.765Z,9.17
2018-06-19T23:07:04.904Z,11.93
2018-06-19T23:09:33.069Z,10.80
2018-06-19T23:12:01.212Z,9.20
2018-06-19T23:14:29.369Z,7.33
2018-06-19T23:16:57.517Z,7.10
2018-06-19T23:19:25.665Z,7.77
2018-06-19T23:21:53.816Z,6.27
2018-06-19T23:24:21.733Z,6.57
2018-06-19T23:26:49.878Z,5.20
2018-06-19T23:29:18.050Z,5.87
2018-06-19T23:31:46.192Z,7.67
2018-06-19T23:34:14.349Z,6.00
2018-06-19T23:36:42.496Z,5.27
2018-06-19T23:39:10.744Z,7.43
2018-06-19T23:41:38.924Z,10.57
2018-06-19T23:44:07.120Z,8.30
2018-06-19T23:46:35.265Z,8.40
2018-06-19T23:49:03.592Z,8.93
2018-06-19T23:51:31.744Z,6.43
2018-06-19T23:53:59.881Z,8.30
2018-06-19T23:56:27.806Z,6.03
2018-06-19T23:58:55.948Z,9.07
